sensor_id;sensor_type;location;lat;lon;timestamp;P1;durP1;ratioP1;P2;durP2;ratioP2
4355;SDS011;64374;51.482;7.408;2023-08-01T00:00:10;1.87;;;1.33;;
4355;SDS011;64374;51.482;7.408;2023-08-01T00:02:43;1.43;;;1.20;;
4355;SDS011;64374;51.482;7.408;2023-08-01T00:05:11;2.03;;;1.10;;
4355;SDS011;64374;51.482;7.408;2023-08-01T00:07:39;2.33;;;1.20;;
4355;SDS011;64374;51.482;7.408;2023-08-01T00:10:10;1.13;;;1.00;;
4355;SDS011;64374;51.482;7.408;2023-08-01T00:12:42;1.00;;;1.00;;
4355;SDS011;64374;51.482;7.408;2023-08-01T00:15:14;4.20;;;1.10;;
4355;SDS011;64374;51.482;7.408;2023-08-01T00:17:42;1.30;;;1.20;;
4355;SDS011;64374;51.482;7.408;2023-08-01T00:20:11;2.47;;;1.27;;
4355;SDS011;64374;51.482;7.408;2023-08-01T00:22:39;2.50;;;0.93;;
4355;SDS011;64374;51.482;7.408;2023-08-01T00:25:10;1.33;;;1.00;;
4355;SDS011;64374;51.482;7.408;2023-08-01T00:27:38;1.00;;;0.90;;
4355;SDS011;64374;51.482;7.408;2023-08-01T00:30:07;0.60;;;0.60;;
4355;SDS011;64374;51.482;7.408;2023-08-01T00:32:37;0.70;;;0.70;;
4355;SDS011;64374;51.482;7.408;2023-08-01T00:35:10;1.80;;;0.70;;
4355;SDS011;64374;51.482;7.408;2023-08-01T00:37:38;2.03;;;0.60;;
4355;SDS011;64374;51.482;7.408;2023-08-01T00:40:07;2.10;;;0.70;;
4355;SDS011;64374;51.482;7.408;2023-08-01T00:42:39;0.80;;;0.67;;
4355;SDS011;64374;51.482;7.408;2023-08-01T00:45:07;1.57;;;0.57;;
4355;SDS011;64374;51.482;7.408;2023-08-01T00:47:38;0.70;;;0.60;;
4355;SDS011;64374;51.482;7.408;2023-08-01T00:50:07;0.70;;;0.57;;
4355;SDS011;64374;51.482;7.408;2023-08-01T00:52:36;1.60;;;0.80;;
4355;SDS011;64374;51.482;7.408;2023-08-01T00:55:08;1.10;;;0.80;;
4355;SDS011;64374;51.482;7.408;2023-08-01T00:57:37;0.80;;;0.60;;
4355;SDS011;64374;51.482;7.408;2023-08-01T01:00:08;0.70;;;0.70;;
4355;SDS011;64374;51.482;7.408;2023-08-01T01:02:39;0.83;;;0.83;;
4355;SDS011;64374;51.482;7.408;2023-08-01T01:05:11;1.17;;;0.80;;
4355;SDS011;64374;51.482;7.408;2023-08-01T01:07:44;3.00;;;1.10;;
4355;SDS011;64374;51.482;7.408;2023-08-01T01:10:13;0.80;;;0.80;;
4355;SDS011;64374;51.482;7.408;2023-08-01T01:12:44;1.40;;;1.00;;
4355;SDS011;64374;51.482;7.408;2023-08-01T01:15:15;0.80;;;0.70;;
4355;SDS011;64374;51.482;7.408;2023-08-01T01:17:47;1.97;;;1.10;;
4355;SDS011;64374;51.482;7.408;2023-08-01T01:20:22;2.13;;;0.80;;
4355;SDS011;64374;51.482;7.408;2023-08-01T01:22:52;1.00;;;0.90;;
4355;SDS011;64374;51.482;7.408;2023-08-01T01:25:23;1.60;;;1.20;;
4355;SDS011;64374;51.482;7.408;2023-08-01T01:27:52;1.37;;;1.27;;
4355;SDS011;64374;51.482;7.408;2023-08-01T01:30:22;1.87;;;1.30;;
4355;SDS011;64374;51.482;7.408;2023-08-01T01:32:50;1.40;;;1.30;;
4355;SDS011;64374;51.482;7.408;2023-08-01T01:35:19;1.57;;;1.10;;
4355;SDS011;64374;51.482;7.408;2023-08-01T01:37:47;1.60;;;1.20;;
4355;SDS011;64374;51.482;7.408;2023-08-01T01:40:17;1.50;;;1.20;;
4355;SDS011;64374;51.482;7.408;2023-08-01T01:42:47;1.27;;;1.17;;
4355;SDS011;64374;51.482;7.408;2023-08-01T01:45:16;1.10;;;1.00;;
4355;SDS011;64374;51.482;7.408;2023-08-01T01:47:44;2.00;;;1.50;;
4355;SDS011;64374;51.482;7.408;2023-08-01T01:50:12;2.80;;;1.40;;
4355;SDS011;64374;51.482;7.408;2023-08-01T01:52:41;1.90;;;1.63;;
4355;SDS011;64374;51.482;7.408;2023-08-01T01:55:09;1.80;;;1.53;;
4355;SDS011;64374;51.482;7.408;2023-08-01T01:57:39;2.10;;;1.20;;
4355;SDS011;64374;51.482;7.408;2023-08-01T02:00:08;3.80;;;1.30;;
4355;SDS011;64374;51.482;7.408;2023-08-01T02:02:40;1.40;;;1.30;;
4355;SDS011;64374;51.482;7.408;2023-08-01T02:05:08;1.97;;;1.77;;
4355;SDS011;64374;51.482;7.408;2023-08-01T02:07:36;3.33;;;1.60;;
4355;SDS011;64374;51.482;7.408;2023-08-01T02:10:21;2.87;;;1.73;;
4355;SDS011;64374;51.482;7.408;2023-08-01T02:12:56;1.53;;;1.43;;
4355;SDS011;64374;51.482;7.408;2023-08-01T02:15:24;1.43;;;1.33;;
4355;SDS011;64374;51.482;7.408;2023-08-01T02:17:53;1.53;;;1.27;;
4355;SDS011;64374;51.482;7.408;2023-08-01T02:20:23;4.30;;;1.40;;
4355;SDS011;64374;51.482;7.408;2023-08-01T02:22:52;1.63;;;1.17;;
4355;SDS011;64374;51.482;7.408;2023-08-01T02:25:30;3.27;;;1.20;;
4355;SDS011;64374;51.482;7.408;2023-08-01T02:28:02;1.60;;;1.50;;
4355;SDS011;64374;51.482;7.408;2023-08-01T02:30:31;2.43;;;1.93;;
4355;SDS011;64374;51.482;7.408;2023-08-01T02:32:59;2.50;;;1.90;;
4355;SDS011;64374;51.482;7.408;2023-08-01T02:35:29;3.47;;;1.80;;
4355;SDS011;64374;51.482;7.408;2023-08-01T02:37:58;2.80;;;2.20;;
4355;SDS011;64374;51.482;7.408;2023-08-01T02:40:26;8.00;;;2.70;;
4355;SDS011;64374;51.482;7.408;2023-08-01T02:42:54;3.30;;;2.43;;
4355;SDS011;64374;51.482;7.408;2023-08-01T02:45:24;2.50;;;2.20;;
4355;SDS011;64374;51.482;7.408;2023-08-01T02:47:57;3.60;;;2.43;;
4355;SDS011;64374;51.482;7.408;2023-08-01T02:50:31;4.77;;;2.77;;
4355;SDS011;64374;51.482;7.408;2023-08-01T02:52:59;4.03;;;2.77;;
4355;SDS011;64374;51.482;7.408;2023-08-01T02:55:28;6.07;;;2.93;;
4355;SDS011;64374;51.482;7.408;2023-08-01T02:57:56;5.60;;;3.10;;
4355;SDS011;64374;51.482;7.408;2023-08-01T03:00:28;3.60;;;3.27;;
4355;SDS011;64374;51.482;7.408;2023-08-01T03:02:58;5.90;;;3.63;;
4355;SDS011;64374;51.482;7.408;2023-08-01T03:05:30;5.20;;;4.03;;
4355;SDS011;64374;51.482;7.408;2023-08-01T03:07:59;7.10;;;3.67;;
4355;SDS011;64374;51.482;7.408;2023-08-01T03:10:31;5.10;;;4.10;;
4355;SDS011;64374;51.482;7.408;2023-08-01T03:13:09;7.63;;;4.30;;
4355;SDS011;64374;51.482;7.408;2023-08-01T03:15:41;6.63;;;4.90;;
4355;SDS011;64374;51.482;7.408;2023-08-01T03:18:09;5.77;;;5.27;;
4355;SDS011;64374;51.482;7.408;2023-08-01T03:20:39;7.40;;;5.60;;
4355;SDS011;64374;51.482;7.408;2023-08-01T03:23:11;6.90;;;5.27;;
4355;SDS011;64374;51.482;7.408;2023-08-01T03:25:41;15.67;;;7.07;;
4355;SDS011;64374;51.482;7.408;2023-08-01T03:28:10;9.97;;;6.67;;
4355;SDS011;64374;51.482;7.408;2023-08-01T03:30:44;6.97;;;6.27;;
4355;SDS011;64374;51.482;7.408;2023-08-01T03:33:16;9.43;;;6.67;;
4355;SDS011;64374;51.482;7.408;2023-08-01T03:35:44;10.97;;;8.20;;
4355;SDS011;64374;51.482;7.408;2023-08-01T03:38:15;12.07;;;8.87;;
4355;SDS011;64374;51.482;7.408;2023-08-01T03:40:45;15.37;;;9.57;;
4355;SDS011;64374;51.482;7.408;2023-08-01T03:43:14;15.40;;;11.50;;
4355;SDS011;64374;51.482;7.408;2023-08-01T03:45:51;13.50;;;9.20;;
4355;SDS011;64374;51.482;7.408;2023-08-01T03:48:20;17.70;;;10.90;;
4355;SDS011;64374;51.482;7.408;2023-08-01T03:50:52;15.60;;;11.50;;
4355;SDS011;64374;51.482;7.408;2023-08-01T03:53:23;13.33;;;11.60;;
4355;SDS011;64374;51.482;7.408;2023-08-01T03:55:59;16.73;;;12.73;;
4355;SDS011;64374;51.482;7.408;2023-08-01T03:58:28;20.27;;;13.40;;
4355;SDS011;64374;51.482;7.408;2023-08-01T04:01:02;17.80;;;13.30;;
4355;SDS011;64374;51.482;7.408;2023-08-01T04:03:33;16.60;;;13.63;;
4355;SDS011;64374;51.482;7.408;2023-08-01T04:06:01;19.20;;;13.60;;
4355;SDS011;64374;51.482;7.408;2023-08-01T04:08:32;18.63;;;14.97;;
4355;SDS011;64374;51.482;7.408;2023-08-01T04:11:00;20.70;;;14.33;;
4355;SDS011;64374;51.482;7.408;2023-08-01T04:13:39;20.57;;;14.83;;
4355;SDS011;64374;51.482;7.408;2023-08-01T04:16:09;19.63;;;14.63;;
4355;SDS011;64374;51.482;7.408;2023-08-01T04:18:38;26.13;;;16.30;;
4355;SDS011;64374;51.482;7.408;2023-08-01T04:21:07;20.03;;;15.63;;
4355;SDS011;64374;51.482;7.408;2023-08-01T04:23:36;23.30;;;18.07;;
4355;SDS011;64374;51.482;7.408;2023-08-01T04:26:07;19.93;;;16.27;;
4355;SDS011;64374;51.482;7.408;2023-08-01T04:28:36;22.17;;;17.40;;
4355;SDS011;64374;51.482;7.408;2023-08-01T04:31:04;19.37;;;15.60;;
4355;SDS011;64374;51.482;7.408;2023-08-01T04:33:34;24.30;;;14.37;;
4355;SDS011;64374;51.482;7.408;2023-08-01T04:36:02;19.43;;;15.10;;
4355;SDS011;64374;51.482;7.408;2023-08-01T04:38:30;19.37;;;14.40;;
4355;SDS011;64374;51.482;7.408;2023-08-01T04:40:59;17.80;;;11.27;;
4355;SDS011;64374;51.482;7.408;2023-08-01T04:43:36;21.17;;;12.23;;
4355;SDS011;64374;51.482;7.408;2023-08-01T04:46:05;18.27;;;12.00;;
4355;SDS011;64374;51.482;7.408;2023-08-01T04:48:34;13.10;;;11.33;;
4355;SDS011;64374;51.482;7.408;2023-08-01T04:51:03;18.70;;;12.10;;
4355;SDS011;64374;51.482;7.408;2023-08-01T04:53:36;19.90;;;12.00;;
4355;SDS011;64374;51.482;7.408;2023-08-01T04:56:06;15.90;;;11.77;;
4355;SDS011;64374;51.482;7.408;2023-08-01T04:58:35;21.43;;;9.97;;
4355;SDS011;64374;51.482;7.408;2023-08-01T05:01:06;18.60;;;10.77;;
4355;SDS011;64374;51.482;7.408;2023-08-01T05:03:36;19.73;;;9.63;;
4355;SDS011;64374;51.482;7.408;2023-08-01T05:06:11;14.47;;;8.13;;
4355;SDS011;64374;51.482;7.408;2023-08-01T05:08:40;17.00;;;10.73;;
4355;SDS011;64374;51.482;7.408;2023-08-01T05:11:10;10.63;;;8.90;;
4355;SDS011;64374;51.482;7.408;2023-08-01T05:13:39;13.80;;;8.60;;
4355;SDS011;64374;51.482;7.408;2023-08-01T05:16:07;18.00;;;8.07;;
4355;SDS011;64374;51.482;7.408;2023-08-01T05:18:37;16.17;;;8.47;;
4355;SDS011;64374;51.482;7.408;2023-08-01T05:21:05;9.93;;;7.87;;
4355;SDS011;64374;51.482;7.408;2023-08-01T05:23:34;15.20;;;9.53;;
4355;SDS011;64374;51.482;7.408;2023-08-01T05:26:02;12.60;;;8.00;;
4355;SDS011;64374;51.482;7.408;2023-08-01T05:28:31;16.60;;;9.60;;
4355;SDS011;64374;51.482;7.408;2023-08-01T05:31:03;20.40;;;11.47;;
4355;SDS011;64374;51.482;7.408;2023-08-01T05:33:34;14.50;;;10.90;;
4355;SDS011;64374;51.482;7.408;2023-08-01T05:36:04;24.37;;;12.50;;
4355;SDS011;64374;51.482;7.408;2023-08-01T05:38:32;16.77;;;11.50;;
4355;SDS011;64374;51.482;7.408;2023-08-01T05:41:00;18.07;;;11.13;;
4355;SDS011;64374;51.482;7.408;2023-08-01T05:43:28;19.50;;;12.93;;
4355;SDS011;64374;51.482;7.408;2023-08-01T05:45:56;18.00;;;12.43;;
4355;SDS011;64374;51.482;7.408;2023-08-01T05:48:25;18.87;;;12.73;;
4355;SDS011;64374;51.482;7.408;2023-08-01T05:50:53;22.97;;;13.87;;
4355;SDS011;64374;51.482;7.408;2023-08-01T05:53:25;18.30;;;13.00;;
4355;SDS011;64374;51.482;7.408;2023-08-01T05:55:55;16.40;;;12.40;;
4355;SDS011;64374;51.482;7.408;2023-08-01T05:58:23;19.30;;;12.80;;
4355;SDS011;64374;51.482;7.408;2023-08-01T06:00:55;18.27;;;13.23;;
4355;SDS011;64374;51.482;7.408;2023-08-01T06:03:33;18.80;;;12.77;;
4355;SDS011;64374;51.482;7.408;2023-08-01T06:06:09;20.00;;;14.00;;
4355;SDS011;64374;51.482;7.408;2023-08-01T06:08:38;26.20;;;16.03;;
4355;SDS011;64374;51.482;7.408;2023-08-01T06:11:07;22.20;;;14.77;;
4355;SDS011;64374;51.482;7.408;2023-08-01T06:13:35;18.90;;;15.23;;
4355;SDS011;64374;51.482;7.408;2023-08-01T06:16:07;28.00;;;16.40;;
4355;SDS011;64374;51.482;7.408;2023-08-01T06:18:38;23.37;;;15.97;;
4355;SDS011;64374;51.482;7.408;2023-08-01T06:21:06;23.60;;;16.37;;
4355;SDS011;64374;51.482;7.408;2023-08-01T06:23:39;21.97;;;15.43;;
4355;SDS011;64374;51.482;7.408;2023-08-01T06:26:08;27.00;;;15.63;;
4355;SDS011;64374;51.482;7.408;2023-08-01T06:28:36;28.83;;;18.87;;
4355;SDS011;64374;51.482;7.408;2023-08-01T06:31:07;26.97;;;14.63;;
4355;SDS011;64374;51.482;7.408;2023-08-01T06:33:49;23.90;;;15.80;;
4355;SDS011;64374;51.482;7.408;2023-08-01T06:36:31;23.57;;;16.40;;
4355;SDS011;64374;51.482;7.408;2023-08-01T06:39:10;21.47;;;16.10;;
4355;SDS011;64374;51.482;7.408;2023-08-01T06:41:38;23.27;;;17.73;;
4355;SDS011;64374;51.482;7.408;2023-08-01T06:44:06;21.43;;;16.50;;
4355;SDS011;64374;51.482;7.408;2023-08-01T06:46:41;23.80;;;16.83;;
4355;SDS011;64374;51.482;7.408;2023-08-01T06:49:09;34.37;;;18.90;;
4355;SDS011;64374;51.482;7.408;2023-08-01T06:51:37;27.43;;;17.27;;
4355;SDS011;64374;51.482;7.408;2023-08-01T06:54:10;18.67;;;15.73;;
4355;SDS011;64374;51.482;7.408;2023-08-01T06:56:39;21.70;;;16.63;;
4355;SDS011;64374;51.482;7.408;2023-08-01T06:59:13;26.43;;;16.93;;
4355;SDS011;64374;51.482;7.408;2023-08-01T07:01:46;27.00;;;15.70;;
4355;SDS011;64374;51.482;7.408;2023-08-01T07:04:14;26.57;;;17.30;;
4355;SDS011;64374;51.482;7.408;2023-08-01T07:06:42;23.00;;;16.47;;
4355;SDS011;64374;51.482;7.408;2023-08-01T07:09:12;22.93;;;14.47;;
4355;SDS011;64374;51.482;7.408;2023-08-01T07:11:48;20.40;;;15.10;;
4355;SDS011;64374;51.482;7.408;2023-08-01T07:14:17;23.07;;;16.77;;
4355;SDS011;64374;51.482;7.408;2023-08-01T07:16:45;22.40;;;13.93;;
4355;SDS011;64374;51.482;7.408;2023-08-01T07:19:13;26.33;;;15.50;;
4355;SDS011;64374;51.482;7.408;2023-08-01T07:21:41;20.17;;;14.83;;
4355;SDS011;64374;51.482;7.408;2023-08-01T07:24:15;18.73;;;14.90;;
4355;SDS011;64374;51.482;7.408;2023-08-01T07:26:43;23.87;;;14.43;;
4355;SDS011;64374;51.482;7.408;2023-08-01T07:29:11;21.97;;;15.37;;
4355;SDS011;64374;51.482;7.408;2023-08-01T07:31:42;21.27;;;15.47;;
4355;SDS011;64374;51.482;7.408;2023-08-01T07:34:12;21.80;;;14.40;;
4355;SDS011;64374;51.482;7.408;2023-08-01T07:36:41;21.83;;;13.87;;
4355;SDS011;64374;51.482;7.408;2023-08-01T07:39:13;20.33;;;12.80;;
4355;SDS011;64374;51.482;7.408;2023-08-01T07:41:45;16.90;;;13.13;;
4355;SDS011;64374;51.482;7.408;2023-08-01T07:44:15;17.00;;;12.80;;
4355;SDS011;64374;51.482;7.408;2023-08-01T07:46:43;20.07;;;13.27;;
4355;SDS011;64374;51.482;7.408;2023-08-01T07:49:12;15.30;;;12.17;;
4355;SDS011;64374;51.482;7.408;2023-08-01T07:51:40;16.57;;;12.67;;
4355;SDS011;64374;51.482;7.408;2023-08-01T07:54:09;18.43;;;11.97;;
4355;SDS011;64374;51.482;7.408;2023-08-01T07:56:39;13.13;;;10.87;;
4355;SDS011;64374;51.482;7.408;2023-08-01T07:59:10;18.27;;;11.47;;
4355;SDS011;64374;51.482;7.408;2023-08-01T08:01:40;18.80;;;11.13;;
4355;SDS011;64374;51.482;7.408;2023-08-01T08:04:14;17.90;;;10.60;;
4355;SDS011;64374;51.482;7.408;2023-08-01T08:06:42;14.83;;;11.47;;
4355;SDS011;64374;51.482;7.408;2023-08-01T08:09:10;17.10;;;10.80;;
4355;SDS011;64374;51.482;7.408;2023-08-01T08:11:40;14.03;;;9.60;;
4355;SDS011;64374;51.482;7.408;2023-08-01T08:14:08;18.07;;;9.40;;
4355;SDS011;64374;51.482;7.408;2023-08-01T08:16:44;19.87;;;10.93;;
4355;SDS011;64374;51.482;7.408;2023-08-01T08:19:14;15.60;;;9.50;;
4355;SDS011;64374;51.482;7.408;2023-08-01T08:21:42;18.63;;;10.23;;
4355;SDS011;64374;51.482;7.408;2023-08-01T08:24:11;12.73;;;9.53;;
4355;SDS011;64374;51.482;7.408;2023-08-01T08:26:40;16.53;;;9.00;;
4355;SDS011;64374;51.482;7.408;2023-08-01T08:29:15;13.03;;;9.17;;
4355;SDS011;64374;51.482;7.408;2023-08-01T08:31:43;11.20;;;8.30;;
4355;SDS011;64374;51.482;7.408;2023-08-01T08:34:11;15.57;;;9.13;;
4355;SDS011;64374;51.482;7.408;2023-08-01T08:36:42;14.70;;;8.00;;
4355;SDS011;64374;51.482;7.408;2023-08-01T08:39:10;15.73;;;9.10;;
4355;SDS011;64374;51.482;7.408;2023-08-01T08:41:39;12.50;;;8.47;;
4355;SDS011;64374;51.482;7.408;2023-08-01T08:44:14;10.90;;;8.10;;
4355;SDS011;64374;51.482;7.408;2023-08-01T08:46:44;13.03;;;7.80;;
4355;SDS011;64374;51.482;7.408;2023-08-01T08:49:15;12.47;;;7.27;;
4355;SDS011;64374;51.482;7.408;2023-08-01T08:51:47;17.33;;;7.00;;
4355;SDS011;64374;51.482;7.408;2023-08-01T08:54:24;10.30;;;7.83;;
4355;SDS011;64374;51.482;7.408;2023-08-01T08:56:56;10.83;;;6.90;;
4355;SDS011;64374;51.482;7.408;2023-08-01T08:59:26;14.33;;;7.23;;
4355;SDS011;64374;51.482;7.408;2023-08-01T09:01:56;12.93;;;7.90;;
4355;SDS011;64374;51.482;7.408;2023-08-01T09:04:27;11.60;;;8.00;;
4355;SDS011;64374;51.482;7.408;2023-08-01T09:07:00;11.70;;;7.67;;
4355;SDS011;64374;51.482;7.408;2023-08-01T09:09:30;9.07;;;7.43;;
4355;SDS011;64374;51.482;7.408;2023-08-01T09:12:01;12.13;;;7.93;;
4355;SDS011;64374;51.482;7.408;2023-08-01T09:14:31;15.03;;;8.23;;
4355;SDS011;64374;51.482;7.408;2023-08-01T09:19:47;10.73;;;7.13;;
4355;SDS011;64374;51.482;7.408;2023-08-01T09:22:16;14.70;;;7.83;;
4355;SDS011;64374;51.482;7.408;2023-08-01T09:24:50;15.37;;;7.50;;
4355;SDS011;64374;51.482;7.408;2023-08-01T09:27:22;13.50;;;6.90;;
4355;SDS011;64374;51.482;7.408;2023-08-01T09:29:52;15.80;;;7.67;;
4355;SDS011;64374;51.482;7.408;2023-08-01T09:32:21;8.30;;;6.67;;
4355;SDS011;64374;51.482;7.408;2023-08-01T09:34:57;9.33;;;6.53;;
4355;SDS011;64374;51.482;7.408;2023-08-01T09:37:26;16.30;;;6.80;;
4355;SDS011;64374;51.482;7.408;2023-08-01T09:40:05;10.00;;;7.00;;
4355;SDS011;64374;51.482;7.408;2023-08-01T09:42:41;9.83;;;6.07;;
4355;SDS011;64374;51.482;7.408;2023-08-01T09:45:12;7.73;;;5.87;;
4355;SDS011;64374;51.482;7.408;2023-08-01T09:47:45;11.60;;;6.17;;
4355;SDS011;64374;51.482;7.408;2023-08-01T09:50:19;9.40;;;5.90;;
4355;SDS011;64374;51.482;7.408;2023-08-01T09:52:49;13.43;;;7.30;;
4355;SDS011;64374;51.482;7.408;2023-08-01T09:55:19;5.43;;;4.73;;
4355;SDS011;64374;51.482;7.408;2023-08-01T09:57:55;7.80;;;5.37;;
4355;SDS011;64374;51.482;7.408;2023-08-01T10:00:29;9.47;;;5.20;;
4355;SDS011;64374;51.482;7.408;2023-08-01T10:02:57;13.60;;;5.90;;
4355;SDS011;64374;51.482;7.408;2023-08-01T10:05:29;9.63;;;5.13;;
4355;SDS011;64374;51.482;7.408;2023-08-01T10:07:59;9.40;;;5.70;;
4355;SDS011;64374;51.482;7.408;2023-08-01T10:10:27;6.60;;;5.00;;
4355;SDS011;64374;51.482;7.408;2023-08-01T10:12:58;7.43;;;5.27;;
4355;SDS011;64374;51.482;7.408;2023-08-01T10:15:28;10.63;;;4.70;;
4355;SDS011;64374;51.482;7.408;2023-08-01T10:17:57;6.80;;;4.87;;
4355;SDS011;64374;51.482;7.408;2023-08-01T10:20:29;6.93;;;4.13;;
4355;SDS011;64374;51.482;7.408;2023-08-01T10:22:58;6.27;;;4.23;;
4355;SDS011;64374;51.482;7.408;2023-08-01T10:25:28;6.73;;;4.63;;
4355;SDS011;64374;51.482;7.408;2023-08-01T10:27:59;7.13;;;4.33;;
4355;SDS011;64374;51.482;7.408;2023-08-01T10:30:29;6.00;;;4.17;;
4355;SDS011;64374;51.482;7.408;2023-08-01T10:32:57;3.20;;;2.90;;
4355;SDS011;64374;51.482;7.408;2023-08-01T10:35:34;3.83;;;2.57;;
4355;SDS011;64374;51.482;7.408;2023-08-01T10:38:04;5.50;;;4.20;;
4355;SDS011;64374;51.482;7.408;2023-08-01T10:40:33;9.37;;;4.57;;
4355;SDS011;64374;51.482;7.408;2023-08-01T10:43:06;9.03;;;4.63;;
4355;SDS011;64374;51.482;7.408;2023-08-01T10:45:46;10.67;;;5.20;;
4355;SDS011;64374;51.482;7.408;2023-08-01T10:48:14;9.50;;;6.00;;
4355;SDS011;64374;51.482;7.408;2023-08-01T10:50:42;11.10;;;4.83;;
4355;SDS011;64374;51.482;7.408;2023-08-01T10:53:21;5.90;;;5.13;;
4355;SDS011;64374;51.482;7.408;2023-08-01T10:55:49;8.23;;;5.20;;
4355;SDS011;64374;51.482;7.408;2023-08-01T10:58:18;10.13;;;5.53;;
4355;SDS011;64374;51.482;7.408;2023-08-01T11:00:56;8.73;;;5.40;;
4355;SDS011;64374;51.482;7.408;2023-08-01T11:03:33;13.00;;;5.87;;
4355;SDS011;64374;51.482;7.408;2023-08-01T11:06:02;7.57;;;5.47;;
4355;SDS011;64374;51.482;7.408;2023-08-01T11:08:35;7.40;;;5.37;;
4355;SDS011;64374;51.482;7.408;2023-08-01T11:11:07;7.77;;;6.30;;
4355;SDS011;64374;51.482;7.408;2023-08-01T11:13:50;14.60;;;5.90;;
4355;SDS011;64374;51.482;7.408;2023-08-01T11:16:22;5.40;;;4.77;;
4355;SDS011;64374;51.482;7.408;2023-08-01T11:18:58;6.60;;;4.60;;
4355;SDS011;64374;51.482;7.408;2023-08-01T11:21:26;6.27;;;5.30;;
4355;SDS011;64374;51.482;7.408;2023-08-01T11:23:54;9.83;;;5.40;;
4355;SDS011;64374;51.482;7.408;2023-08-01T11:26:31;10.53;;;6.20;;
4355;SDS011;64374;51.482;7.408;2023-08-01T11:29:02;5.97;;;3.90;;
4355;SDS011;64374;51.482;7.408;2023-08-01T11:31:30;8.97;;;4.00;;
4355;SDS011;64374;51.482;7.408;2023-08-01T11:33:59;6.80;;;3.50;;
4355;SDS011;64374;51.482;7.408;2023-08-01T11:36:27;9.77;;;4.40;;
4355;SDS011;64374;51.482;7.408;2023-08-01T11:38:57;6.67;;;4.50;;
4355;SDS011;64374;51.482;7.408;2023-08-01T11:41:29;10.37;;;5.20;;
4355;SDS011;64374;51.482;7.408;2023-08-01T11:44:03;8.50;;;5.67;;
4355;SDS011;64374;51.482;7.408;2023-08-01T11:46:33;8.57;;;5.97;;
4355;SDS011;64374;51.482;7.408;2023-08-01T11:49:02;7.57;;;4.20;;
4355;SDS011;64374;51.482;7.408;2023-08-01T11:51:30;8.80;;;4.60;;
4355;SDS011;64374;51.482;7.408;2023-08-01T11:54:07;6.60;;;4.20;;
4355;SDS011;64374;51.482;7.408;2023-08-01T11:56:38;4.90;;;2.53;;
4355;SDS011;64374;51.482;7.408;2023-08-01T11:59:10;7.37;;;3.23;;
4355;SDS011;64374;51.482;7.408;2023-08-01T12:01:42;4.20;;;3.20;;
4355;SDS011;64374;51.482;7.408;2023-08-01T12:04:12;6.10;;;3.70;;
4355;SDS011;64374;51.482;7.408;2023-08-01T12:06:51;7.80;;;4.07;;
4355;SDS011;64374;51.482;7.408;2023-08-01T12:09:19;4.30;;;3.90;;
4355;SDS011;64374;51.482;7.408;2023-08-01T12:11:57;6.63;;;3.27;;
4355;SDS011;64374;51.482;7.408;2023-08-01T12:14:30;5.00;;;3.63;;
4355;SDS011;64374;51.482;7.408;2023-08-01T12:17:00;3.50;;;3.07;;
4355;SDS011;64374;51.482;7.408;2023-08-01T12:19:28;4.83;;;3.40;;
4355;SDS011;64374;51.482;7.408;2023-08-01T12:21:59;7.23;;;4.20;;
4355;SDS011;64374;51.482;7.408;2023-08-01T12:24:35;5.17;;;3.70;;
4355;SDS011;64374;51.482;7.408;2023-08-01T12:27:06;6.93;;;3.77;;
4355;SDS011;64374;51.482;7.408;2023-08-01T12:29:36;9.10;;;4.80;;
4355;SDS011;64374;51.482;7.408;2023-08-01T12:32:07;8.40;;;4.23;;
4355;SDS011;64374;51.482;7.408;2023-08-01T12:34:35;7.73;;;5.23;;
4355;SDS011;64374;51.482;7.408;2023-08-01T12:37:04;7.13;;;4.87;;
4355;SDS011;64374;51.482;7.408;2023-08-01T12:39:33;9.47;;;4.60;;
4355;SDS011;64374;51.482;7.408;2023-08-01T12:42:03;7.33;;;4.60;;
4355;SDS011;64374;51.482;7.408;2023-08-01T12:44:32;11.13;;;4.77;;
4355;SDS011;64374;51.482;7.408;2023-08-01T12:47:02;8.90;;;4.60;;
4355;SDS011;64374;51.482;7.408;2023-08-01T12:49:31;7.03;;;4.63;;
4355;SDS011;64374;51.482;7.408;2023-08-01T12:52:02;9.43;;;5.10;;
4355;SDS011;64374;51.482;7.408;2023-08-01T12:54:30;8.13;;;5.90;;
4355;SDS011;64374;51.482;7.408;2023-08-01T12:56:59;7.30;;;4.50;;
4355;SDS011;64374;51.482;7.408;2023-08-01T12:59:27;9.13;;;4.33;;
4355;SDS011;64374;51.482;7.408;2023-08-01T13:01:55;4.70;;;3.20;;
4355;SDS011;64374;51.482;7.408;2023-08-01T13:04:28;5.23;;;3.60;;
4355;SDS011;64374;51.482;7.408;2023-08-01T13:06:56;6.50;;;3.93;;
4355;SDS011;64374;51.482;7.408;2023-08-01T13:09:27;9.10;;;4.60;;
4355;SDS011;64374;51.482;7.408;2023-08-01T13:11:55;7.77;;;4.57;;
4355;SDS011;64374;51.482;7.408;2023-08-01T13:14:24;8.40;;;4.90;;
4355;SDS011;64374;51.482;7.408;2023-08-01T13:16:52;9.77;;;5.20;;
4355;SDS011;64374;51.482;7.408;2023-08-01T13:19:22;8.23;;;4.93;;
4355;SDS011;64374;51.482;7.408;2023-08-01T13:21:52;11.20;;;5.27;;
4355;SDS011;64374;51.482;7.408;2023-08-01T13:24:22;6.53;;;4.30;;
4355;SDS011;64374;51.482;7.408;2023-08-01T13:26:50;7.93;;;3.37;;
4355;SDS011;64374;51.482;7.408;2023-08-01T13:29:21;6.13;;;3.57;;
4355;SDS011;64374;51.482;7.408;2023-08-01T13:31:56;6.30;;;3.43;;
4355;SDS011;64374;51.482;7.408;2023-08-01T13:34:27;7.57;;;3.30;;
4355;SDS011;64374;51.482;7.408;2023-08-01T13:37:00;7.33;;;2.90;;
4355;SDS011;64374;51.482;7.408;2023-08-01T13:39:28;8.47;;;3.73;;
4355;SDS011;64374;51.482;7.408;2023-08-01T13:41:56;9.10;;;3.70;;
4355;SDS011;64374;51.482;7.408;2023-08-01T13:44:24;6.03;;;3.27;;
4355;SDS011;64374;51.482;7.408;2023-08-01T13:46:52;3.17;;;2.70;;
4355;SDS011;64374;51.482;7.408;2023-08-01T13:49:23;5.07;;;3.00;;
4355;SDS011;64374;51.482;7.408;2023-08-01T13:51:53;5.00;;;3.43;;
4355;SDS011;64374;51.482;7.408;2023-08-01T13:54:32;8.50;;;3.00;;
4355;SDS011;64374;51.482;7.408;2023-08-01T13:57:00;6.00;;;2.80;;
4355;SDS011;64374;51.482;7.408;2023-08-01T13:59:30;9.83;;;3.30;;
4355;SDS011;64374;51.482;7.408;2023-08-01T14:01:59;4.63;;;2.47;;
4355;SDS011;64374;51.482;7.408;2023-08-01T14:04:29;6.07;;;3.10;;
4355;SDS011;64374;51.482;7.408;2023-08-01T14:06:57;5.73;;;2.50;;
4355;SDS011;64374;51.482;7.408;2023-08-01T14:09:27;6.70;;;2.43;;
4355;SDS011;64374;51.482;7.408;2023-08-01T14:11:55;5.20;;;2.10;;
4355;SDS011;64374;51.482;7.408;2023-08-01T14:14:24;4.87;;;2.87;;
4355;SDS011;64374;51.482;7.408;2023-08-01T14:16:52;3.37;;;2.20;;
4355;SDS011;64374;51.482;7.408;2023-08-01T14:19:21;5.00;;;2.53;;
4355;SDS011;64374;51.482;7.408;2023-08-01T14:21:50;6.23;;;2.63;;
4355;SDS011;64374;51.482;7.408;2023-08-01T14:24:20;4.87;;;1.97;;
4355;SDS011;64374;51.482;7.408;2023-08-01T14:26:50;5.17;;;2.13;;
4355;SDS011;64374;51.482;7.408;2023-08-01T14:29:18;6.40;;;2.13;;
4355;SDS011;64374;51.482;7.408;2023-08-01T14:31:51;5.60;;;2.77;;
4355;SDS011;64374;51.482;7.408;2023-08-01T14:34:19;4.87;;;2.50;;
4355;SDS011;64374;51.482;7.408;2023-08-01T14:36:50;8.97;;;2.60;;
4355;SDS011;64374;51.482;7.408;2023-08-01T14:39:19;4.27;;;2.60;;
4355;SDS011;64374;51.482;7.408;2023-08-01T14:41:50;6.80;;;2.60;;
4355;SDS011;64374;51.482;7.408;2023-08-01T14:44:21;3.97;;;2.07;;
4355;SDS011;64374;51.482;7.408;2023-08-01T14:46:49;7.90;;;3.03;;
4355;SDS011;64374;51.482;7.408;2023-08-01T14:49:17;5.63;;;2.20;;
4355;SDS011;64374;51.482;7.408;2023-08-01T14:51:46;6.53;;;2.37;;
4355;SDS011;64374;51.482;7.408;2023-08-01T14:54:15;5.83;;;2.37;;
4355;SDS011;64374;51.482;7.408;2023-08-01T14:57:03;6.93;;;2.63;;
4355;SDS011;64374;51.482;7.408;2023-08-01T14:59:31;5.43;;;2.60;;
4355;SDS011;64374;51.482;7.408;2023-08-01T15:02:00;5.83;;;2.70;;
4355;SDS011;64374;51.482;7.408;2023-08-01T15:04:31;4.80;;;2.43;;
4355;SDS011;64374;51.482;7.408;2023-08-01T15:07:00;4.67;;;2.20;;
4355;SDS011;64374;51.482;7.408;2023-08-01T15:09:30;9.03;;;2.33;;
4355;SDS011;64374;51.482;7.408;2023-08-01T15:11:58;5.60;;;2.67;;
4355;SDS011;64374;51.482;7.408;2023-08-01T15:14:28;7.20;;;3.03;;